createdAt,value
2023-03-05T00:01:29.867Z,8.57
2023-03-05T00:04:31.532Z,7.53
2023-03-05T00:07:33.510Z,8.47
2023-03-05T00:10:35.100Z,7.28
2023-03-05T00:13:37.328Z,7.70
2023-03-05T00:16:39.644Z,7.53
2023-03-05T00:19:41.312Z,7.90
2023-03-05T00:22:42.973Z,7.07
2023-03-05T00:25:46.032Z,7.53
2023-03-05T00:28:50.020Z,7.18
2023-03-05T00:31:51.658Z,6.80
2023-03-05T00:34:53.364Z,7.72
2023-03-05T00:37:55.071Z,6.87
2023-03-05T00:40:56.809Z,7.18
2023-03-05T00:43:58.510Z,7.22
2023-03-05T00:47:00.249Z,7.25
2023-03-05T00:50:03.151Z,7.13
2023-03-05T00:53:04.787Z,7.37
2023-03-05T00:56:07.090Z,7.18
2023-03-05T00:59:08.867Z,7.18
2023-03-05T01:02:10.494Z,5.90
2023-03-05T01:05:13.686Z,6.65
2023-03-05T01:08:15.978Z,7.30
2023-03-05T01:11:17.616Z,6.32
2023-03-05T01:14:20.171Z,7.18
2023-03-05T01:17:21.765Z,6.75
2023-03-05T01:20:23.492Z,7.13
2023-03-05T01:23:25.252Z,5.67
2023-03-05T01:26:27.358Z,6.30
2023-03-05T01:29:29.033Z,6.95
2023-03-05T01:32:30.787Z,6.53
2023-03-05T01:35:32.522Z,5.85
2023-03-05T01:38:34.131Z,6.07
2023-03-05T01:41:35.855Z,6.72
2023-03-05T01:44:37.563Z,6.10
2023-03-05T01:47:39.943Z,5.45
2023-03-05T01:50:41.608Z,6.72
2023-03-05T01:53:43.373Z,6.73
2023-03-05T01:56:48.202Z,6.07
2023-03-05T01:59:55.506Z,6.25
2023-03-05T02:02:58.320Z,6.70
2023-03-05T02:05:59.962Z,6.32
2023-03-05T02:09:01.628Z,6.47
2023-03-05T02:12:03.327Z,6.30
2023-03-05T02:15:05.518Z,6.93
2023-03-05T02:18:08.576Z,6.22
2023-03-05T02:21:11.911Z,7.07
2023-03-05T02:24:19.846Z,7.00
2023-03-05T02:27:34.792Z,6.63
2023-03-05T02:30:37.426Z,6.50
2023-03-05T02:33:39.395Z,6.25
2023-03-05T02:36:41.305Z,6.32
2023-03-05T02:39:42.920Z,6.70
2023-03-05T02:42:44.574Z,6.82
2023-03-05T02:45:46.294Z,6.90
2023-03-05T02:48:47.981Z,6.60
2023-03-05T02:51:49.730Z,6.53
2023-03-05T02:54:52.660Z,6.63
2023-03-05T02:57:54.368Z,6.90
2023-03-05T03:00:56.205Z,7.10
2023-03-05T03:03:58.044Z,6.53
2023-03-05T03:06:59.702Z,6.85
2023-03-05T03:10:01.372Z,6.77
2023-03-05T03:13:03.363Z,6.50
2023-03-05T03:16:07.073Z,6.75
2023-03-05T03:19:08.949Z,6.45
2023-03-05T03:22:12.829Z,6.78
2023-03-05T03:25:18.258Z,6.57
2023-03-05T03:28:20.311Z,6.03
2023-03-05T03:31:22.037Z,5.95
2023-03-05T03:34:23.934Z,6.43
2023-03-05T03:37:25.709Z,6.40
2023-03-05T03:40:27.308Z,6.00
2023-03-05T03:43:28.924Z,5.68
2023-03-05T03:46:30.774Z,6.00
2023-03-05T03:49:32.414Z,5.60
2023-03-05T03:52:34.151Z,6.25
2023-03-05T03:55:35.789Z,5.67
2023-03-05T03:58:37.406Z,5.45
2023-03-05T04:01:39.082Z,6.15
2023-03-05T04:04:40.766Z,5.28
2023-03-05T04:07:42.366Z,5.57
2023-03-05T04:10:43.989Z,5.33
2023-03-05T04:13:47.071Z,5.75
2023-03-05T04:16:48.653Z,5.82
2023-03-05T04:19:50.291Z,6.22
2023-03-05T04:22:51.922Z,5.72
2023-03-05T04:25:53.606Z,5.53
2023-03-05T04:28:55.199Z,5.22
2023-03-05T04:31:56.980Z,5.63
2023-03-05T04:34:59.181Z,5.78
2023-03-05T04:38:01.040Z,6.03
2023-03-05T04:41:02.662Z,5.80
2023-03-05T04:44:04.566Z,5.57
2023-03-05T04:47:06.390Z,6.00
2023-03-05T04:50:09.064Z,5.82
2023-03-05T04:53:10.659Z,6.13
2023-03-05T04:56:12.232Z,5.87
2023-03-05T04:59:13.867Z,5.72
2023-03-05T05:02:15.580Z,6.13
2023-03-05T05:05:24.374Z,6.18
2023-03-05T05:08:27.011Z,6.15
2023-03-05T05:11:28.665Z,6.50
2023-03-05T05:14:30.264Z,6.38
2023-03-05T05:17:33.111Z,6.35
2023-03-05T05:20:34.777Z,6.32
2023-03-05T05:23:36.791Z,5.95
2023-03-05T05:26:38.482Z,5.97
2023-03-05T05:29:40.143Z,6.38
2023-03-05T05:32:41.823Z,6.00
2023-03-05T05:35:43.591Z,6.60
2023-03-05T05:38:45.917Z,6.50
2023-03-05T05:41:51.584Z,6.07
2023-03-05T05:44:55.475Z,6.00
2023-03-05T05:47:57.320Z,6.80
2023-03-05T05:50:59.141Z,6.38
2023-03-05T05:54:00.815Z,7.13
2023-03-05T05:57:02.546Z,6.30
2023-03-05T06:00:07.654Z,6.75
2023-03-05T06:03:09.270Z,6.18
2023-03-05T06:06:16.676Z,6.45
2023-03-05T06:09:18.376Z,6.88
2023-03-05T06:12:20.038Z,6.90
2023-03-05T06:15:24.686Z,6.63
2023-03-05T06:18:26.435Z,7.13
2023-03-05T06:21:28.622Z,6.68
2023-03-05T06:24:30.473Z,7.03
2023-03-05T06:27:32.214Z,6.80
2023-03-05T06:30:33.826Z,6.85
2023-03-05T06:33:35.585Z,7.05
2023-03-05T06:36:38.285Z,6.57
2023-03-05T06:39:39.887Z,6.97
2023-03-05T06:42:41.597Z,6.73
2023-03-05T06:45:43.411Z,6.70
2023-03-05T06:48:45.460Z,7.07
2023-03-05T06:51:47.553Z,7.68
2023-03-05T06:54:49.139Z,6.10
2023-03-05T06:57:50.830Z,6.73
2023-03-05T07:00:52.424Z,6.88
2023-03-05T07:03:55.555Z,7.47
2023-03-05T07:06:58.580Z,6.32
2023-03-05T07:10:00.526Z,6.80
2023-03-05T07:13:02.094Z,6.67
2023-03-05T07:16:14.371Z,7.28
2023-03-05T07:19:16.665Z,6.88
2023-03-05T07:22:18.424Z,6.97
2023-03-05T07:25:21.618Z,6.47
2023-03-05T07:28:23.467Z,7.03
2023-03-05T07:31:31.793Z,6.97
2023-03-05T07:34:33.401Z,6.82
2023-03-05T07:37:35.200Z,7.30
2023-03-05T07:40:36.778Z,7.97
2023-03-05T07:43:39.298Z,7.13
2023-03-05T07:46:41.838Z,6.65
2023-03-05T07:49:43.582Z,6.47
2023-03-05T07:52:45.216Z,6.53
2023-03-05T07:55:47.625Z,6.18
2023-03-05T07:58:49.225Z,6.63
2023-03-05T08:01:50.810Z,6.63
2023-03-05T08:04:52.422Z,6.45
2023-03-05T08:07:54.005Z,6.70
2023-03-05T08:10:55.613Z,6.93
2023-03-05T08:13:59.462Z,6.17
2023-03-05T08:17:01.167Z,7.00
2023-03-05T08:20:05.708Z,7.35
2023-03-05T08:23:07.375Z,6.78
2023-03-05T08:26:14.306Z,6.82
2023-03-05T08:29:15.909Z,6.97
2023-03-05T08:32:17.525Z,7.25
2023-03-05T08:35:19.239Z,7.38
2023-03-05T08:38:21.204Z,7.93
2023-03-05T08:41:22.987Z,7.88
2023-03-05T08:44:24.617Z,7.37
2023-03-05T08:47:27.441Z,7.05
2023-03-05T08:50:29.191Z,7.30
2023-03-05T08:53:30.886Z,7.07
2023-03-05T08:56:34.217Z,7.38
2023-03-05T08:59:35.850Z,7.00
2023-03-05T09:02:37.630Z,6.78
2023-03-05T09:05:39.327Z,6.97
2023-03-05T09:08:41.300Z,7.63
2023-03-05T09:11:43.005Z,6.97
2023-03-05T09:14:44.620Z,6.90
2023-03-05T09:17:46.278Z,7.00
2023-03-05T09:20:47.903Z,7.90
2023-03-05T09:23:49.784Z,6.13
2023-03-05T09:26:51.478Z,7.03
2023-03-05T09:29:53.333Z,7.27
2023-03-05T09:32:54.945Z,7.18
2023-03-05T09:35:56.690Z,7.40
2023-03-05T09:38:58.922Z,7.03
2023-03-05T09:42:15.686Z,7.15
2023-03-05T09:45:27.013Z,7.30
2023-03-05T09:48:52.193Z,7.07
2023-03-05T09:52:02.157Z,7.07
2023-03-05T09:55:05.146Z,7.18
2023-03-05T09:58:12.904Z,7.38
2023-03-05T10:01:19.193Z,7.47
2023-03-05T10:04:53.388Z,7.55
2023-03-05T10:07:59.894Z,7.18
2023-03-05T10:11:06.732Z,7.10
2023-03-05T10:14:14.343Z,7.32
2023-03-05T10:17:30.970Z,7.40
2023-03-05T10:20:41.815Z,7.07
2023-03-05T10:23:53.640Z,6.68
2023-03-05T10:27:00.542Z,7.38
2023-03-05T10:30:05.118Z,5.40
2023-03-05T10:33:09.808Z,6.27
2023-03-05T10:36:26.882Z,7.05
2023-03-05T10:39:50.381Z,6.70
2023-03-05T10:43:17.033Z,7.18
2023-03-05T10:46:22.498Z,7.93
2023-03-05T10:49:30.129Z,6.97
2023-03-05T10:52:46.719Z,6.78
2023-03-05T10:55:50.616Z,7.13
2023-03-05T10:58:52.896Z,7.95
2023-03-05T11:02:08.978Z,8.20
2023-03-05T11:05:39.385Z,7.40
2023-03-05T11:08:41.455Z,5.97
2023-03-05T11:11:44.152Z,6.45
2023-03-05T11:14:47.742Z,6.80
2023-03-05T11:18:06.611Z,6.32
2023-03-05T11:21:11.726Z,6.50
2023-03-05T11:24:19.230Z,6.38
2023-03-05T11:27:35.993Z,7.07
2023-03-05T11:30:37.779Z,7.03
2023-03-05T11:33:39.571Z,6.90
2023-03-05T11:36:42.819Z,7.00
2023-03-05T11:39:46.244Z,7.57
2023-03-05T11:42:56.073Z,7.18
2023-03-05T11:46:03.675Z,6.43
2023-03-05T11:49:06.543Z,6.72
2023-03-05T11:52:31.131Z,6.70
2023-03-05T11:55:48.768Z,6.60
2023-03-05T11:58:53.902Z,5.65
2023-03-05T12:01:57.525Z,6.20
2023-03-05T12:05:03.251Z,5.20
2023-03-05T12:08:06.178Z,6.13
2023-03-05T12:11:25.596Z,5.97
2023-03-05T12:14:36.881Z,5.55
2023-03-05T12:18:04.652Z,5.05
2023-03-05T12:21:17.038Z,5.03
2023-03-05T12:24:27.731Z,5.60
2023-03-05T12:27:35.573Z,5.00
2023-03-05T12:30:37.194Z,3.35
2023-03-05T12:33:40.046Z,4.82
2023-03-05T12:36:41.735Z,6.10
2023-03-05T12:39:50.912Z,4.83
2023-03-05T12:43:03.204Z,3.83
2023-03-05T12:46:29.384Z,5.18
2023-03-05T12:49:39.106Z,4.38
2023-03-05T12:52:45.515Z,3.65
2023-03-05T12:55:57.146Z,4.80
2023-03-05T12:59:01.904Z,5.20
2023-03-05T13:02:15.751Z,5.07
2023-03-05T13:05:38.290Z,4.95
2023-03-05T13:08:39.926Z,4.75
2023-03-05T13:11:43.082Z,5.17
2023-03-05T13:14:56.000Z,4.70
2023-03-05T13:18:03.309Z,5.00
2023-03-05T13:21:14.477Z,4.72
2023-03-05T13:24:19.117Z,5.00
2023-03-05T13:27:32.151Z,4.90
2023-03-05T13:30:34.875Z,4.70
2023-03-05T13:33:37.325Z,5.22
2023-03-05T13:36:40.140Z,4.85
2023-03-05T13:39:49.577Z,4.30
2023-03-05T13:42:53.395Z,5.57
2023-03-05T13:45:56.672Z,5.25
2023-03-05T13:49:18.031Z,5.38
2023-03-05T13:52:46.193Z,5.18
2023-03-05T13:55:49.263Z,5.15
2023-03-05T13:58:55.909Z,5.80
2023-03-05T14:02:05.953Z,5.53
2023-03-05T14:05:15.361Z,4.68
2023-03-05T14:08:25.847Z,4.82
2023-03-05T14:11:27.664Z,5.40
2023-03-05T14:14:30.898Z,5.10
2023-03-05T14:17:44.951Z,5.15
2023-03-05T14:21:05.582Z,5.13
2023-03-05T14:24:14.522Z,4.43
2023-03-05T14:27:21.075Z,4.25
2023-03-05T14:30:24.925Z,4.30
2023-03-05T14:33:31.905Z,4.47
2023-03-05T14:36:34.746Z,4.47
2023-03-05T14:39:51.098Z,4.82
2023-03-05T14:42:53.878Z,5.00
2023-03-05T14:45:55.522Z,4.87
2023-03-05T14:48:57.343Z,4.43
2023-03-05T14:51:58.962Z,4.40
2023-03-05T14:55:00.773Z,4.53
2023-03-05T14:58:18.448Z,4.10
2023-03-05T15:01:20.243Z,4.50
2023-03-05T15:04:21.968Z,4.70
2023-03-05T15:07:30.984Z,4.20
2023-03-05T15:10:32.637Z,4.03
2023-03-05T15:13:36.522Z,3.95
2023-03-05T15:16:42.125Z,3.37
2023-03-05T15:19:43.993Z,4.07
2023-03-05T15:22:45.761Z,3.35
2023-03-05T15:25:47.877Z,4.15
2023-03-05T15:28:50.911Z,4.40
2023-03-05T15:31:55.636Z,3.70
2023-03-05T15:34:57.451Z,3.90
2023-03-05T15:37:59.244Z,4.15
2023-03-05T15:41:01.896Z,4.28
2023-03-05T15:44:03.831Z,3.88
2023-03-05T15:47:05.860Z,4.00
2023-03-05T15:50:10.073Z,3.58
2023-03-05T15:53:13.457Z,4.10
2023-03-05T15:56:19.305Z,4.07
2023-03-05T15:59:21.045Z,3.90
2023-03-05T16:02:24.677Z,3.60
2023-03-05T16:05:26.446Z,4.10
2023-03-05T16:08:28.509Z,4.25
2023-03-05T16:11:32.987Z,3.53
2023-03-05T16:14:34.719Z,3.00
2023-03-05T16:17:36.861Z,3.20
2023-03-05T16:20:38.557Z,3.10
2023-03-05T16:23:40.242Z,3.25
2023-03-05T16:26:42.668Z,3.00
2023-03-05T16:29:44.344Z,3.05
2023-03-05T16:32:45.997Z,3.10
2023-03-05T16:35:48.014Z,3.10
2023-03-05T16:38:51.562Z,2.80
2023-03-05T16:41:53.507Z,2.50
2023-03-05T16:44:55.161Z,2.50
2023-03-05T16:47:56.769Z,2.30
2023-03-05T16:51:00.136Z,2.15
2023-03-05T16:54:01.961Z,2.70
2023-03-05T16:57:04.154Z,2.60
2023-03-05T17:00:06.802Z,2.80
2023-03-05T17:03:08.575Z,2.37
2023-03-05T17:06:13.401Z,2.05
2023-03-05T17:09:15.496Z,2.20
2023-03-05T17:12:17.157Z,2.55
2023-03-05T17:15:18.971Z,2.80
2023-03-05T17:18:20.582Z,2.23
2023-03-05T17:21:22.351Z,3.00
2023-03-05T17:24:24.195Z,3.17
2023-03-05T17:27:25.802Z,3.10
2023-03-05T17:30:28.262Z,2.88
2023-03-05T17:33:34.445Z,3.10
2023-03-05T17:36:36.381Z,3.22
2023-03-05T17:39:39.113Z,3.00
2023-03-05T17:42:40.801Z,2.90
2023-03-05T17:45:43.021Z,2.67
2023-03-05T17:48:44.925Z,2.83
2023-03-05T17:51:46.651Z,3.30
2023-03-05T17:54:50.361Z,2.88
2023-03-05T17:57:53.053Z,2.83
2023-03-05T18:00:54.674Z,2.90
2023-03-05T18:03:56.776Z,3.13
2023-03-05T18:06:58.599Z,3.00
2023-03-05T18:10:00.605Z,3.00
2023-03-05T18:13:02.572Z,2.65
2023-03-05T18:16:04.501Z,2.80
2023-03-05T18:19:06.130Z,2.60
2023-03-05T18:22:07.738Z,3.05
2023-03-05T18:25:11.137Z,3.10
2023-03-05T18:28:14.211Z,4.22
2023-03-05T18:31:16.032Z,3.30
2023-03-05T18:34:19.178Z,2.77
2023-03-05T18:37:20.850Z,3.50
2023-03-05T18:40:24.269Z,3.80
2023-03-05T18:43:26.347Z,3.58
2023-03-05T18:46:28.087Z,3.53
2023-03-05T18:49:30.548Z,3.07
2023-03-05T18:52:32.207Z,2.90
2023-03-05T18:55:34.113Z,3.05
2023-03-05T18:58:36.116Z,2.95
2023-03-05T19:01:37.922Z,2.95
2023-03-05T19:04:39.730Z,2.83
2023-03-05T19:07:44.035Z,2.70
2023-03-05T19:10:45.861Z,2.70
2023-03-05T19:13:51.377Z,2.67
2023-03-05T19:16:53.043Z,2.67
2023-03-05T19:19:57.988Z,2.57
2023-03-05T19:22:59.649Z,2.83
2023-03-05T19:26:02.598Z,2.80
2023-03-05T19:29:05.410Z,2.53
2023-03-05T19:32:20.744Z,2.72
2023-03-05T19:35:22.443Z,3.00
2023-03-05T19:38:24.268Z,2.78
2023-03-05T19:41:27.727Z,2.42
2023-03-05T19:44:30.346Z,2.65
2023-03-05T19:47:35.286Z,2.63
2023-03-05T19:50:36.967Z,2.80
2023-03-05T19:53:40.036Z,2.72
2023-03-05T19:56:43.087Z,2.60
2023-03-05T19:59:46.123Z,2.63
2023-03-05T20:02:48.723Z,2.88
2023-03-05T20:05:50.404Z,3.10
2023-03-05T20:08:52.110Z,3.97
2023-03-05T20:11:53.959Z,4.88
2023-03-05T20:14:55.680Z,4.43
2023-03-05T20:17:58.041Z,4.30
2023-03-05T20:21:01.948Z,3.30
2023-03-05T20:24:09.592Z,3.50
2023-03-05T20:27:11.448Z,3.25
2023-03-05T20:30:16.319Z,3.10
2023-03-05T20:33:17.912Z,3.20
2023-03-05T20:36:19.749Z,3.23
2023-03-05T20:39:21.460Z,3.80
2023-03-05T20:42:23.063Z,3.83
2023-03-05T20:45:24.746Z,3.80
2023-03-05T20:48:28.750Z,3.95
2023-03-05T20:51:35.053Z,3.47
2023-03-05T20:54:36.822Z,3.38
2023-03-05T20:57:39.243Z,3.15
2023-03-05T21:00:41.754Z,2.90
2023-03-05T21:03:43.433Z,2.85
2023-03-05T21:06:45.048Z,2.53
2023-03-05T21:09:46.703Z,2.55
2023-03-05T21:12:50.313Z,2.42
2023-03-05T21:15:52.283Z,3.00
2023-03-05T21:18:56.022Z,2.88
2023-03-05T21:21:57.838Z,2.50
2023-03-05T21:25:22.167Z,2.60
2023-03-05T21:28:24.191Z,2.78
2023-03-05T21:31:25.856Z,2.60
2023-03-05T21:34:27.521Z,3.35
2023-03-05T21:37:29.124Z,2.83
2023-03-05T21:40:32.060Z,2.78
2023-03-05T21:43:34.229Z,3.08
2023-03-05T21:46:37.440Z,3.08
2023-03-05T21:49:39.184Z,3.50
2023-03-05T21:52:40.888Z,3.53
2023-03-05T21:56:25.217Z,3.65
2023-03-05T21:59:27.056Z,4.10
2023-03-05T22:02:28.677Z,4.38
2023-03-05T22:05:30.456Z,3.90
2023-03-05T22:08:32.034Z,4.10
2023-03-05T22:11:33.916Z,4.25
2023-03-05T22:14:35.942Z,4.20
2023-03-05T22:17:37.527Z,4.43
2023-03-05T22:20:39.303Z,4.25
2023-03-05T22:23:40.942Z,4.30
2023-03-05T22:26:42.593Z,4.22
2023-03-05T22:29:44.254Z,3.95
2023-03-05T22:32:45.990Z,4.43
2023-03-05T22:35:47.796Z,4.43
2023-03-05T22:38:49.461Z,4.87
2023-03-05T22:41:51.036Z,4.80
2023-03-05T22:44:59.099Z,5.13
2023-03-05T22:48:00.843Z,4.50
2023-03-05T22:51:02.559Z,4.72
2023-03-05T22:54:04.357Z,5.00
2023-03-05T22:57:08.590Z,5.13
2023-03-05T23:00:16.323Z,5.22
2023-03-05T23:03:18.004Z,5.40
2023-03-05T23:06:19.687Z,5.68
2023-03-05T23:09:22.297Z,4.87
2023-03-05T23:12:25.535Z,5.15
2023-03-05T23:15:33.121Z,5.47
2023-03-05T23:18:34.896Z,5.80
2023-03-05T23:21:36.520Z,4.95
2023-03-05T23:24:38.941Z,5.10
2023-03-05T23:27:41.396Z,5.30
2023-03-05T23:30:43.247Z,5.50
2023-03-05T23:33:44.862Z,4.88
2023-03-05T23:36:46.476Z,5.05
2023-03-05T23:39:48.446Z,5.20
2023-03-05T23:42:50.420Z,4.38
2023-03-05T23:45:56.224Z,5.20
2023-03-05T23:48:57.884Z,4.45
2023-03-05T23:51:59.609Z,4.68
2023-03-05T23:55:01.325Z,4.67
2023-03-05T23:58:04.421Z,5.07
